Time;durP1;ratioP1;P1;durP2;ratioP2;P2;SDS_P1;SDS_P2;PMS_P1;PMS_P2;Temp;Humidity;BMP_temperature;BMP_pressure;BME280_temperature;BME280_humidity;BME280_pressure;Samples;Min_cycle;Max_cycle;Signal;HPM_P1;HPM_P2
2023/08/05 00:02:10;;;;;;;;;;;;;;;11.52;100.00;101825.78;5074510;28;19921;-75
2023/08/05 00:04:35;;;;;;;;;;;;;;;11.51;100.00;101827.63;5056242;28;19976;-74
2023/08/05 00:07:00;;;;;;;;;;;;;;;11.51;100.00;101816.09;5074544;28;19925;-74
2023/08/05 00:09:26;;;;;;;;;;;;;;;11.48;100.00;101817.22;5074082;28;19970;-75
2023/08/05 00:11:51;;;;;;;;;;;;;;;11.47;100.00;101812.84;5074048;28;19970;-75
2023/08/05 00:14:16;;;;;;;;;;;;;;;11.43;100.00;101804.22;5074002;28;19924;-75
2023/08/05 00:16:41;;;;;;;;;;;;;;;11.40;100.00;101809.78;5055725;28;19989;-75
2023/08/05 00:19:07;;;;;;;;;;;;;;;11.36;100.00;101802.16;5056008;28;19920;-75
2023/08/05 00:21:32;;;;;;;;;;;;;;;11.34;100.00;101804.13;5073614;28;20019;-75
2023/08/05 00:23:57;;;;;;;;;;;;;;;11.31;100.00;101805.19;5073901;28;19970;-75
2023/08/05 00:26:22;;;;;;;;;;;;;;;11.32;100.00;101798.06;5073906;28;19920;-75
2023/08/05 00:28:47;;;;;;;;;;;;;;;11.34;100.00;101804.13;5073762;28;19977;-75
2023/08/05 00:31:13;;;;;;;;;;;;;;;11.31;100.00;101797.19;5073575;28;19974;-75
2023/08/05 00:33:38;;;;;;;;;;;;;;;11.28;100.00;101800.09;5073538;28;19928;-75
2023/08/05 00:36:03;;;;;;;;;;;;;;;11.23;100.00;101788.97;5073666;28;19927;-75
2023/08/05 00:38:28;;;;;;;;;;;;;;;11.21;100.00;101781.09;5073540;28;19920;-75
2023/08/05 00:40:54;;;;;;;;;;;;;;;11.22;100.00;101780.13;5073847;28;19927;-75
2023/08/05 00:43:19;;;;;;;;;;;;;;;11.24;100.00;101780.00;5055941;28;19964;-75
2023/08/05 00:45:45;;;;;;;;;;;;;;;11.24;100.00;101780.88;5073948;28;20380;-75
2023/08/05 00:48:10;;;;;;;;;;;;;;;11.23;100.00;101784.47;5073737;28;20348;-75
2023/08/05 00:50:36;;;;;;;;;;;;;;;11.24;100.00;101778.19;5073637;28;20011;-75
2023/08/05 00:53:01;;;;;;;;;;;;;;;11.31;100.00;101785.72;5073421;28;19916;-75
2023/08/05 00:55:27;;;;;;;;;;;;;;;11.35;100.00;101784.50;5073560;28;19930;-75
2023/08/05 00:57:52;;;;;;;;;;;;;;;11.39;100.00;101785.94;5055412;28;19920;-75
2023/08/05 01:00:17;;;;;;;;;;;;;;;11.47;100.00;101786.19;5073361;28;19921;-75
2023/08/05 01:02:42;;;;;;;;;;;;;;;11.55;100.00;101783.75;5073549;28;19944;-75
2023/08/05 01:05:08;;;;;;;;;;;;;;;11.64;100.00;101795.50;5073419;28;19920;-75
2023/08/05 01:07:35;;;;;;;;;;;;;;;11.71;100.00;101790.53;5073462;28;19928;-75
2023/08/05 01:10:01;;;;;;;;;;;;;;;11.75;100.00;101792.81;5073509;28;19947;-75
2023/08/05 01:12:26;;;;;;;;;;;;;;;11.81;100.00;101786.16;5073447;28;19925;-75
2023/08/05 01:14:51;;;;;;;;;;;;;;;11.87;100.00;101783.00;5055558;28;19939;-75
2023/08/05 01:17:17;;;;;;;;;;;;;;;11.92;100.00;101783.44;5073407;28;19924;-75
2023/08/05 01:19:42;;;;;;;;;;;;;;;11.96;100.00;101784.09;5073248;28;19927;-75
2023/08/05 01:22:15;;;;;;;;;;;;;;;11.94;100.00;101776.22;5073818;28;19924;-74
2023/08/05 01:24:53;;;;;;;;;;;;;;;11.94;100.00;101778.88;5073103;28;19921;-75
2023/08/05 01:27:18;;;;;;;;;;;;;;;11.92;100.00;101770.13;5073706;28;20348;-75
2023/08/05 01:29:44;;;;;;;;;;;;;;;11.92;100.00;101767.44;5073226;28;19967;-75
2023/08/05 01:32:09;;;;;;;;;;;;;;;11.93;100.00;101752.34;5072826;28;19916;-75
2023/08/05 01:34:36;;;;;;;;;;;;;;;11.93;100.00;101753.19;5055336;28;19974;-75
2023/08/05 01:37:01;;;;;;;;;;;;;;;11.93;100.00;101749.69;5073125;28;19920;-76
2023/08/05 01:39:26;;;;;;;;;;;;;;;11.93;100.00;101749.69;5073209;28;19924;-74
2023/08/05 01:41:51;;;;;;;;;;;;;;;11.93;100.00;101752.34;5073049;28;20007;-75
2023/08/05 01:44:17;;;;;;;;;;;;;;;11.96;100.00;101758.25;5073111;28;20028;-75
2023/08/05 01:46:42;;;;;;;;;;;;;;;11.99;100.00;101758.00;5055173;28;20273;-75
2023/08/05 01:49:07;;;;;;;;;;;;;;;12.03;100.00;101755.09;5073034;28;20331;-75
2023/08/05 01:51:32;;;;;;;;;;;;;;;12.05;100.00;101753.16;5073629;28;20322;-75
2023/08/05 01:53:58;;;;;;;;;;;;;;;12.07;100.00;101749.38;5072711;28;19974;-75
2023/08/05 01:56:23;;;;;;;;;;;;;;;12.09;100.00;101749.25;5054778;28;19920;-75
2023/08/05 01:58:48;;;;;;;;;;;;;;;12.12;100.00;101754.31;5038403;28;19920;-74
2023/08/05 02:01:13;;;;;;;;;;;;;;;12.13;100.00;101746.19;5075120;28;20032;-74
2023/08/05 02:03:38;;;;;;;;;;;;;;;12.16;100.00;101756.59;5076263;28;20305;-75
2023/08/05 02:06:04;;;;;;;;;;;;;;;12.17;100.00;101758.31;5076088;28;19920;-75
2023/08/05 02:08:29;;;;;;;;;;;;;;;12.19;100.00;101752.84;5076359;28;20280;-75
2023/08/05 02:10:54;;;;;;;;;;;;;;;12.20;100.00;101762.56;5076397;28;20384;-75
2023/08/05 02:13:19;;;;;;;;;;;;;;;12.21;100.00;101755.38;5076265;28;19973;-75
2023/08/05 02:15:44;;;;;;;;;;;;;;;12.22;100.00;101757.09;5076280;28;19968;-75
2023/08/05 02:18:10;;;;;;;;;;;;;;;12.21;100.00;101756.25;5076277;28;19920;-75
2023/08/05 02:20:35;;;;;;;;;;;;;;;12.21;100.00;101740.25;5076298;28;20280;-75
2023/08/05 02:23:00;;;;;;;;;;;;;;;12.19;100.00;101723.50;5075870;28;20356;-75
2023/08/05 02:25:25;;;;;;;;;;;;;;;12.17;100.00;101717.47;5076181;28;20303;-75
2023/08/05 02:27:51;;;;;;;;;;;;;;;12.15;100.00;101714.06;5058176;28;19920;-75
2023/08/05 02:30:16;;;;;;;;;;;;;;;12.12;100.00;101709.84;5075961;28;19968;-75
2023/08/05 02:32:41;;;;;;;;;;;;;;;12.09;100.00;101712.78;5076492;28;19927;-75
2023/08/05 02:35:07;;;;;;;;;;;;;;;12.06;100.00;101710.34;5075950;28;19924;-75
2023/08/05 02:37:32;;;;;;;;;;;;;;;12.03;100.00;101699.91;5076529;28;20414;-75
2023/08/05 02:39:57;;;;;;;;;;;;;;;12.01;100.00;101699.22;5076016;28;20007;-77
2023/08/05 02:42:22;;;;;;;;;;;;;;;11.99;100.00;101694.00;5076104;28;19920;-74
2023/08/05 02:44:49;;;;;;;;;;;;;;;11.99;100.00;101693.16;5076187;28;19920;-75
2023/08/05 02:47:14;;;;;;;;;;;;;;;11.98;100.00;101694.13;5075758;28;19977;-75
2023/08/05 02:49:39;;;;;;;;;;;;;;;11.99;100.00;101686.00;5075605;28;19946;-74
2023/08/05 02:52:05;;;;;;;;;;;;;;;12.02;100.00;101678.69;5076327;28;19920;-74
2023/08/05 02:54:30;;;;;;;;;;;;;;;12.03;100.00;101675.06;5075747;28;19928;-75
2023/08/05 02:56:56;;;;;;;;;;;;;;;12.05;100.00;101673.16;5057428;28;19927;-75
2023/08/05 02:59:21;;;;;;;;;;;;;;;12.05;100.00;101670.47;5075463;28;19927;-75
2023/08/05 03:01:46;;;;;;;;;;;;;;;12.06;100.00;101673.00;5075755;28;19931;-74
2023/08/05 03:04:11;;;;;;;;;;;;;;;12.08;100.00;101660.38;5057436;28;19920;-75
2023/08/05 03:06:36;;;;;;;;;;;;;;;12.10;100.00;101670.91;5075885;28;19964;-75
2023/08/05 03:09:15;;;;;;;;;;;;;;;12.12;100.00;101667.16;5062670;27;1955276;-75
2023/08/05 03:11:41;;;;;;;;;;;;;;;12.13;100.00;101663.50;5131240;28;19923;-75
2023/08/05 03:14:06;;;;;;;;;;;;;;;12.14;100.00;101664.38;5130944;28;20369;-75
2023/08/05 03:16:31;;;;;;;;;;;;;;;12.13;100.00;101658.16;5131363;28;20372;-75
2023/08/05 03:18:56;;;;;;;;;;;;;;;12.14;100.00;101654.53;5131574;28;20287;-75
2023/08/05 03:21:22;;;;;;;;;;;;;;;12.14;100.00;101657.19;5130895;28;19923;-75
2023/08/05 03:23:47;;;;;;;;;;;;;;;12.15;100.00;101660.69;5131219;28;19920;-75
2023/08/05 03:26:12;;;;;;;;;;;;;;;12.16;100.00;101657.91;5130729;28;20045;-75
2023/08/05 03:28:37;;;;;;;;;;;;;;;12.16;100.00;101654.41;5112652;28;19920;-75
2023/08/05 03:31:02;;;;;;;;;;;;;;;12.18;100.00;101649.75;5131029;28;19927;-75
2023/08/05 03:33:28;;;;;;;;;;;;;;;12.19;100.00;101648.78;5130524;28;19920;-75
2023/08/05 03:35:54;;;;;;;;;;;;;;;12.20;100.00;101650.50;5130874;28;19986;-75
2023/08/05 03:38:19;;;;;;;;;;;;;;;12.21;100.00;101628.19;5130501;28;19931;-75
2023/08/05 03:40:45;;;;;;;;;;;;;;;12.23;100.00;101628.91;5130869;28;19959;-75
2023/08/05 03:43:10;;;;;;;;;;;;;;;12.26;100.00;101622.47;5130637;28;19946;-75
2023/08/05 03:45:35;;;;;;;;;;;;;;;12.28;100.00;101615.16;5112646;28;19920;-75
2023/08/05 03:48:00;;;;;;;;;;;;;;;12.28;100.00;101609.81;5112272;28;19926;-75
2023/08/05 03:50:28;;;;;;;;;;;;;;;12.29;100.00;101612.34;5112028;28;19923;-76
2023/08/05 03:52:54;;;;;;;;;;;;;;;12.28;100.00;101610.66;5130300;28;19920;-75
2023/08/05 03:55:19;;;;;;;;;;;;;;;12.28;100.00;101607.16;5129959;28;19926;-75
2023/08/05 03:57:46;;;;;;;;;;;;;;;12.28;100.00;101597.31;5112149;28;19919;-75
2023/08/05 04:00:11;;;;;;;;;;;;;;;12.28;100.00;101597.31;5130055;28;20014;-75
2023/08/05 04:02:37;;;;;;;;;;;;;;;12.28;100.00;101596.47;5130453;28;19955;-75
2023/08/05 04:05:04;;;;;;;;;;;;;;;12.29;100.00;101593.69;5112023;28;19915;-75
2023/08/05 04:07:29;;;;;;;;;;;;;;;12.31;100.00;101591.72;5129391;28;20272;-75
2023/08/05 04:09:55;;;;;;;;;;;;;;;12.30;100.00;101587.38;5130430;28;19919;-75
2023/08/05 04:12:20;;;;;;;;;;;;;;;12.31;100.00;101585.53;5129807;28;19915;-75
2023/08/05 04:14:45;;;;;;;;;;;;;;;12.31;100.00;101580.22;5130212;28;19920;-75
2023/08/05 04:17:12;;;;;;;;;;;;;;;12.33;100.00;101581.78;5129773;28;19923;-76
2023/08/05 04:19:37;;;;;;;;;;;;;;;12.33;100.00;101581.78;5122099;28;20351;-75
2023/08/05 04:22:03;;;;;;;;;;;;;;;12.38;100.00;101583.19;5116366;28;19950;-74
2023/08/05 04:24:29;;;;;;;;;;;;;;;12.42;100.00;101584.59;5115957;28;19921;-75
2023/08/05 04:26:55;;;;;;;;;;;;;;;12.46;100.00;101588.72;5116443;28;20386;-75
2023/08/05 04:29:22;;;;;;;;;;;;;;;12.46;100.00;101578.03;5097698;28;19920;-75
2023/08/05 04:31:48;;;;;;;;;;;;;;;12.48;100.00;101584.06;5116332;28;19923;-75
2023/08/05 04:34:13;;;;;;;;;;;;;;;12.49;100.00;101581.25;5115875;28;20374;-75
2023/08/05 04:36:38;;;;;;;;;;;;;;;12.50;100.00;101582.13;5115879;28;20055;-75
2023/08/05 04:39:04;;;;;;;;;;;;;;;12.52;100.00;101573.03;5115965;28;20287;-74
2023/08/05 04:41:29;;;;;;;;;;;;;;;12.54;100.00;101562.22;5115641;28;20026;-75
2023/08/05 04:43:55;;;;;;;;;;;;;;;12.58;100.00;101557.44;5115630;28;19919;-74
2023/08/05 04:46:20;;;;;;;;;;;;;;;12.60;100.00;101550.13;5115474;28;19920;-75
2023/08/05 04:48:45;;;;;;;;;;;;;;;12.63;100.00;101550.72;5115763;28;20279;-75
2023/08/05 04:51:10;;;;;;;;;;;;;;;12.66;100.00;101552.28;5115311;28;19916;-76
2023/08/05 04:53:36;;;;;;;;;;;;;;;12.68;100.00;101555.66;5115517;28;19919;-74
2023/08/05 04:56:02;;;;;;;;;;;;;;;12.69;100.00;101544.81;5115374;28;20367;-74
2023/08/05 04:58:27;;;;;;;;;;;;;;;12.72;100.00;101543.72;5115334;28;19935;-74
2023/08/05 05:00:55;;;;;;;;;;;;;;;12.76;100.00;101541.63;5115627;28;20014;-74
2023/08/05 05:03:20;;;;;;;;;;;;;;;12.80;100.00;101545.72;5115180;28;19916;-74
2023/08/05 05:05:45;;;;;;;;;;;;;;;12.83;100.00;101540.09;5115197;28;19926;-75
2023/08/05 05:08:11;;;;;;;;;;;;;;;12.85;100.00;101544.31;5115248;28;19927;-74
2023/08/05 05:10:36;;;;;;;;;;;;;;;12.87;100.00;101538.84;5115085;28;19920;-75
2023/08/05 05:13:01;;;;;;;;;;;;;;;12.91;100.00;101534.06;5115772;28;20023;-75
2023/08/05 05:15:26;;;;;;;;;;;;;;;12.94;100.00;101528.44;5114949;28;20097;-75
2023/08/05 05:17:51;;;;;;;;;;;;;;;12.97;100.00;101518.34;5097109;28;19920;-75
2023/08/05 05:20:17;;;;;;;;;;;;;;;13.00;100.00;101528.75;5114919;28;19919;-78
2023/08/05 05:22:42;;;;;;;;;;;;;;;13.02;100.00;101521.44;5115348;28;19923;-75
2023/08/05 05:25:07;;;;;;;;;;;;;;;13.06;100.00;101513.97;5115284;28;19920;-75
2023/08/05 05:27:33;;;;;;;;;;;;;;;13.09;100.00;101516.34;5114671;28;20386;-75
2023/08/05 05:29:59;;;;;;;;;;;;;;;13.16;100.00;101516.66;5114785;28;19916;-75
2023/08/05 05:32:24;;;;;;;;;;;;;;;13.19;100.00;101503.84;5113666;28;19973;-76
2023/08/05 05:34:49;;;;;;;;;;;;;;;13.25;100.00;101494.44;5114944;28;20345;-76
2023/08/05 05:37:14;;;;;;;;;;;;;;;13.30;100.00;101497.56;5115003;28;19916;-75
2023/08/05 05:39:40;;;;;;;;;;;;;;;13.34;100.00;101490.94;5114551;28;19919;-75
2023/08/05 05:42:06;;;;;;;;;;;;;;;13.40;100.00;101498.44;5114929;28;19920;-75
2023/08/05 05:44:31;;;;;;;;;;;;;;;13.46;100.00;101494.31;5114355;28;20014;-75
2023/08/05 05:46:56;;;;;;;;;;;;;;;13.50;100.00;101502.91;5114281;28;20321;-75
2023/08/05 05:49:22;;;;;;;;;;;;;;;13.53;100.00;101500.78;5114212;28;19934;-76
2023/08/05 05:51:47;;;;;;;;;;;;;;;13.56;100.00;101502.34;5096476;28;20376;-75
2023/08/05 05:54:13;;;;;;;;;;;;;;;13.60;100.00;101505.56;5114639;28;19919;-75
2023/08/05 05:56:38;;;;;;;;;;;;;;;13.63;100.00;101508.81;5114155;28;19920;-76
2023/08/05 05:59:03;;;;;;;;;;;;;;;13.67;100.00;101501.34;5114613;28;19916;-75
2023/08/05 06:01:29;;;;;;;;;;;;;;;13.73;100.00;101498.09;5113980;28;20303;-75
2023/08/05 06:03:54;;;;;;;;;;;;;;;13.80;100.00;101493.03;5114402;28;19947;-75
2023/08/05 06:06:19;;;;;;;;;;;;;;;13.84;100.00;101491.72;5114400;28;19928;-75
2023/08/05 06:08:45;;;;;;;;;;;;;;;13.89;100.00;101495.66;5113328;28;19972;-75
2023/08/05 06:11:10;;;;;;;;;;;;;;;13.95;100.00;101488.06;5114272;28;19919;-74
2023/08/05 06:13:36;;;;;;;;;;;;;;;13.99;100.00;101482.25;5113786;28;19928;-75
2023/08/05 06:16:01;;;;;;;;;;;;;;;14.05;100.00;101484.34;5114098;28;19920;-74
2023/08/05 06:18:26;;;;;;;;;;;;;;;14.12;100.00;101484.59;5113723;28;20337;-75
2023/08/05 06:20:52;;;;;;;;;;;;;;;14.23;100.00;101479.06;5113906;28;19919;-74
2023/08/05 06:23:17;;;;;;;;;;;;;;;14.39;100.00;101472.22;5114039;28;19916;-74
2023/08/05 06:25:42;;;;;;;;;;;;;;;14.55;100.00;101467.06;5113571;28;19916;-75
2023/08/05 06:28:08;;;;;;;;;;;;;;;14.80;100.00;101470.06;5095692;28;19927;-74
2023/08/05 06:30:34;;;;;;;;;;;;;;;15.04;100.00;101476.66;5113605;28;19920;-73
2023/08/05 06:33:00;;;;;;;;;;;;;;;15.25;100.00;101476.34;5113909;28;20067;-74
2023/08/05 06:35:25;;;;;;;;;;;;;;;15.49;100.00;101470.34;5113607;28;19924;-74
2023/08/05 06:37:51;;;;;;;;;;;;;;;15.62;100.00;101467.25;5113670;28;19927;-75
2023/08/05 06:40:16;;;;;;;;;;;;;;;15.79;100.00;101460.19;5113770;28;19924;-75
2023/08/05 06:42:41;;;;;;;;;;;;;;;15.89;100.00;101460.91;5094872;28;19920;-75
2023/08/05 06:45:06;;;;;;;;;;;;;;;15.94;100.00;101460.44;5095333;28;19963;-74
2023/08/05 06:47:32;;;;;;;;;;;;;;;16.00;100.00;101449.06;5113044;28;19970;-75
2023/08/05 06:49:58;;;;;;;;;;;;;;;16.04;100.00;101437.00;5095526;28;20002;-75
2023/08/05 06:52:23;;;;;;;;;;;;;;;16.11;100.00;101431.81;5113281;28;19924;-75
2023/08/05 06:54:48;;;;;;;;;;;;;;;16.12;100.00;101428.13;5112810;28;19924;-75
2023/08/05 06:57:13;;;;;;;;;;;;;;;16.21;100.00;101427.16;5113554;28;19926;-75
2023/08/05 06:59:38;;;;;;;;;;;;;;;16.20;100.00;101423.66;5113021;28;19924;-75
2023/08/05 07:02:04;;;;;;;;;;;;;;;16.17;100.00;101421.28;5113483;28;19967;-76
2023/08/05 07:04:30;;;;;;;;;;;;;;;16.22;100.00;101418.13;5113046;28;19927;-79
2023/08/05 07:06:55;;;;;;;;;;;;;;;16.26;100.00;101410.56;5113153;28;19981;-75
2023/08/05 07:09:20;;;;;;;;;;;;;;;16.26;100.00;101415.94;5113452;28;20363;-75
2023/08/05 07:11:45;;;;;;;;;;;;;;;16.17;100.00;101415.91;5113303;28;19988;-73
2023/08/05 07:14:11;;;;;;;;;;;;;;;16.14;100.00;101410.88;5113460;28;20021;-75
2023/08/05 07:16:36;;;;;;;;;;;;;;;16.17;100.00;101415.09;5094783;28;19928;-72
2023/08/05 07:19:01;;;;;;;;;;;;;;;16.27;100.00;101405.06;5112886;28;19924;-72
2023/08/05 07:21:27;;;;;;;;;;;;;;;16.36;100.00;101408.59;5113202;28;19920;-75
2023/08/05 07:23:52;;;;;;;;;;;;;;;16.42;100.00;101404.41;5112914;28;20252;-75
2023/08/05 07:26:17;;;;;;;;;;;;;;;16.48;100.00;101404.63;5113349;28;19959;-77
2023/08/05 07:28:43;;;;;;;;;;;;;;;16.57;100.00;101406.31;5112809;28;20057;-76
2023/08/05 07:31:10;;;;;;;;;;;;;;;16.65;100.00;101396.59;5113106;28;20279;-76
2023/08/05 07:33:35;;;;;;;;;;;;;;;16.60;100.00;101396.22;5112672;28;19924;-75
2023/08/05 07:36:07;;;;;;;;;;;;;;;16.60;100.00;101390.84;5113392;28;19927;-76
2023/08/05 07:38:35;;;;;;;;;;;;;;;16.71;100.00;101395.94;5113128;28;19927;-76
2023/08/05 07:41:00;;;;;;;;;;;;;;;16.86;100.00;101390.72;5108011;28;19992;-79
2023/08/05 07:43:29;;;;;;;;;;;;;;;17.03;100.00;101389.78;5110396;28;20316;-83
2023/08/05 07:45:56;;;;;;;;;;;;;;;17.22;100.00;101390.41;5110087;28;19961;-82
2023/08/05 07:48:22;;;;;;;;;;;;;;;17.40;100.00;101385.69;5110158;28;19920;-80
2023/08/05 07:50:47;;;;;;;;;;;;;;;17.51;100.00;101380.94;5109815;28;19926;-79
2023/08/05 07:53:13;;;;;;;;;;;;;;;17.70;100.00;101379.72;5109605;28;19949;-79
2023/08/05 07:55:41;;;;;;;;;;;;;;;17.73;100.00;101376.69;5113278;28;20384;-74
2023/08/05 07:58:07;;;;;;;;;;;;;;;17.75;100.00;101372.81;5114566;28;19934;-78
2023/08/05 08:00:33;;;;;;;;;;;;;;;17.79;100.00;101363.41;5113968;28;19920;-79
2023/08/05 08:02:58;;;;;;;;;;;;;;;17.86;100.00;101360.00;5113458;28;20387;-81
2023/08/05 08:05:24;;;;;;;;;;;;;;;17.86;100.00;101352.75;5114464;28;19920;-77
2023/08/05 08:07:50;;;;;;;;;;;;;;;17.82;100.00;101345.22;5113108;28;20501;-78
2023/08/05 08:10:15;;;;;;;;;;;;;;;17.80;100.00;101348.91;5114118;28;20267;-79
2023/08/05 08:12:41;;;;;;;;;;;;;;;17.76;100.00;101336.81;5106762;28;19931;-80
2023/08/05 08:15:07;;;;;;;;;;;;;;;17.89;100.00;101338.13;5096529;28;19924;-75
2023/08/05 08:17:32;;;;;;;;;;;;;;;18.15;100.00;101329.75;5095677;28;19919;-80
2023/08/05 08:19:58;;;;;;;;;;;;;;;18.46;100.00;101328.91;5095675;28;19916;-79
2023/08/05 08:22:23;;;;;;;;;;;;;;;18.65;100.00;101327.59;5095762;28;19924;-78
2023/08/05 08:24:48;;;;;;;;;;;;;;;18.77;100.00;101330.69;5095322;28;19927;-79
2023/08/05 08:27:13;;;;;;;;;;;;;;;18.83;100.00;101322.69;5095825;28;19920;-80
2023/08/05 08:29:39;;;;;;;;;;;;;;;18.97;100.00;101318.41;5096093;28;19924;-81
2023/08/05 08:32:04;;;;;;;;;;;;;;;18.95;100.00;101306.97;5096152;28;19920;-82
2023/08/05 08:34:29;;;;;;;;;;;;;;;18.87;100.00;101311.59;5095995;28;19935;-79
2023/08/05 08:36:54;;;;;;;;;;;;;;;18.75;100.00;101314.69;5095499;28;19921;-77
2023/08/05 08:39:20;;;;;;;;;;;;;;;18.63;100.00;101300.81;5077443;28;19920;-75
2023/08/05 08:41:45;;;;;;;;;;;;;;;18.50;100.00;101303.28;5095229;28;19924;-76
2023/08/05 08:44:11;;;;;;;;;;;;;;;18.42;100.00;101303.31;5095620;28;19927;-76
2023/08/05 08:46:37;;;;;;;;;;;;;;;18.15;100.00;101305.53;5095366;28;19977;-76
2023/08/05 08:49:02;;;;;;;;;;;;;;;17.90;100.00;101294.06;5095134;28;19916;-76
2023/08/05 08:51:28;;;;;;;;;;;;;;;17.84;100.00;101287.50;5095655;28;19927;-75
2023/08/05 08:53:54;;;;;;;;;;;;;;;17.68;100.00;101277.66;5095032;28;19926;-74
2023/08/05 08:56:19;;;;;;;;;;;;;;;17.72;100.00;101275.44;5077007;28;19920;-74
2023/08/05 08:58:44;;;;;;;;;;;;;;;17.87;100.00;101279.09;5095129;28;19920;-74
2023/08/05 09:01:12;;;;;;;;;;;;;;;18.06;100.00;101282.38;5076751;28;19928;-73
2023/08/05 09:03:39;;;;;;;;;;;;;;;18.13;100.00;101278.78;5095239;28;19920;-74
2023/08/05 09:06:04;;;;;;;;;;;;;;;18.01;100.00;101280.19;5094740;28;19920;-70
2023/08/05 09:08:29;;;;;;;;;;;;;;;17.88;100.00;101278.03;5095032;28;19928;-76
2023/08/05 09:10:55;;;;;;;;;;;;;;;17.76;100.00;101277.59;5094679;28;20394;-77
2023/08/05 09:13:20;;;;;;;;;;;;;;;17.66;100.00;101271.63;5094789;28;19920;-76
2023/08/05 09:15:46;;;;;;;;;;;;;;;17.51;100.00;101265.28;5095166;28;19930;-76
2023/08/05 09:18:11;;;;;;;;;;;;;;;17.53;100.00;101265.97;5076423;28;19916;-76
2023/08/05 09:20:37;;;;;;;;;;;;;;;17.35;100.00;101250.88;5094992;28;19920;-74
2023/08/05 09:23:06;;;;;;;;;;;;;;;17.31;100.00;101264.84;5094487;28;20336;-75
2023/08/05 09:25:32;;;;;;;;;;;;;;;17.22;100.00;101248.75;5094920;28;19916;-75
2023/08/05 09:28:00;;;;;;;;;;;;;;;17.15;100.00;101246.91;5094365;28;19916;-76
2023/08/05 09:30:25;;;;;;;;;;;;;;;17.25;100.00;101247.56;5095099;28;19924;-76
2023/08/05 09:32:51;;;;;;;;;;;;;;;17.42;100.00;101240.25;5094287;28;20279;-78
2023/08/05 09:35:17;;;;;;;;;;;;;;;17.69;100.00;101241.66;5076692;28;20368;-76
2023/08/05 09:37:49;;;;;;;;;;;;;;;17.90;100.00;101234.84;5094229;28;19927;-76
2023/08/05 09:40:18;;;;;;;;;;;;;;;18.07;100.00;101228.34;5094136;28;20391;-75
2023/08/05 09:42:47;;;;;;;;;;;;;;;18.06;100.00;101240.09;5094451;28;19922;-75
2023/08/05 09:45:13;;;;;;;;;;;;;;;17.95;100.00;101235.16;5093937;28;19969;-75
2023/08/05 09:47:38;;;;;;;;;;;;;;;17.91;100.00;101234.66;5094315;28;19927;-74
2023/08/05 09:50:07;;;;;;;;;;;;;;;17.92;100.00;101230.13;5075482;28;19923;-76
2023/08/05 09:52:33;;;;;;;;;;;;;;;17.96;100.00;101232.28;5094237;28;19954;-76
2023/08/05 09:55:04;;;;;;;;;;;;;;;18.00;100.00;101230.06;5093940;28;19973;-77
2023/08/05 09:57:30;;;;;;;;;;;;;;;18.00;100.00;101224.69;5094226;28;19954;-75
2023/08/05 09:59:58;;;;;;;;;;;;;;;18.00;100.00;101216.59;5093789;28;19916;-78
2023/08/05 10:02:25;;;;;;;;;;;;;;;18.17;100.00;101211.94;5094232;28;20016;-76
2023/08/05 10:04:53;;;;;;;;;;;;;;;18.28;100.00;101195.34;5093926;28;19920;-73
2023/08/05 10:07:19;;;;;;;;;;;;;;;18.33;100.00;101195.66;5093627;28;19916;-75
2023/08/05 10:09:45;;;;;;;;;;;;;;;18.40;100.00;101206.53;5093553;28;19928;-76
2023/08/05 10:12:10;;;;;;;;;;;;;;;18.41;100.00;101197.44;5093319;28;20443;-77
2023/08/05 10:14:36;;;;;;;;;;;;;;;18.07;100.00;101201.41;5093765;28;19920;-76
2023/08/05 10:17:02;;;;;;;;;;;;;;;17.91;100.00;101198.84;5092934;28;19916;-75
2023/08/05 10:19:30;;;;;;;;;;;;;;;17.69;100.00;101195.06;5093552;28;19927;-77
2023/08/05 10:22:11;;;;;;;;;;;;;;;17.44;100.00;101196.03;5093720;28;19928;-77
2023/08/05 10:24:49;;;;;;;;;;;;;;;17.34;100.00;101191.91;5093702;28;19916;-77
2023/08/05 10:27:14;;;;;;;;;;;;;;;17.21;100.00;101189.75;5074995;28;19916;-77
2023/08/05 10:29:51;;;;;;;;;;;;;;;17.05;100.00;101186.13;5093394;28;19985;-77
2023/08/05 10:32:16;;;;;;;;;;;;;;;16.90;100.00;101190.56;5092976;28;19923;-77
2023/08/05 10:34:41;;;;;;;;;;;;;;;16.90;100.00;101185.19;5075317;28;19927;-77
2023/08/05 10:37:07;;;;;;;;;;;;;;;16.94;100.00;101175.72;5092950;28;19926;-77
2023/08/05 10:39:42;;;;;;;;;;;;;;;17.00;100.00;101190.34;5093699;28;20007;-77
2023/08/05 10:42:17;;;;;;;;;;;;;;;17.02;100.00;101185.66;5092885;28;19965;-77
2023/08/05 10:44:42;;;;;;;;;;;;;;;16.95;100.00;101177.44;5093171;28;20367;-76
2023/08/05 10:47:07;;;;;;;;;;;;;;;16.81;100.00;101175.41;5092623;28;19966;-78
2023/08/05 10:49:32;;;;;;;;;;;;;;;16.68;100.00;101187.53;5075117;28;19947;-75
2023/08/05 10:51:58;;;;;;;;;;;;;;;16.39;100.00;101180.88;5093242;28;20350;-78
2023/08/05 10:54:24;;;;;;;;;;;;;;;16.00;100.00;101178.00;5074664;28;19916;-78
2023/08/05 10:56:49;;;;;;;;;;;;;;;15.69;100.00;101178.59;5093639;28;19920;-78
2023/08/05 10:59:14;;;;;;;;;;;;;;;15.37;100.00;101187.38;5092591;28;19987;-78
2023/08/05 11:01:55;;;;;;;;;;;;;;;15.18;100.00;101185.81;5093178;28;19931;-74
2023/08/05 11:04:30;;;;;;;;;;;;;;;14.93;100.00;101177.66;5092753;28;19966;-79
2023/08/05 11:06:56;;;;;;;;;;;;;;;14.80;100.00;101172.72;5093281;28;20015;-77
2023/08/05 11:09:22;;;;;;;;;;;;;;;14.71;100.00;101161.13;5092626;28;20389;-78
2023/08/05 11:11:51;;;;;;;;;;;;;;;14.70;100.00;101154.06;5075027;28;20065;-79
2023/08/05 11:14:16;;;;;;;;;;;;;;;14.69;100.00;101144.38;5092235;28;19923;-82
2023/08/05 11:16:45;;;;;;;;;;;;;;;14.70;100.00;101162.09;5092924;28;19916;-76
2023/08/05 11:19:11;;;;;;;;;;;;;;;14.75;100.00;101153.59;5092612;28;19916;-77
2023/08/05 11:21:37;;;;;;;;;;;;;;;14.79;100.00;101161.19;5092834;28;20291;-78
2023/08/05 11:24:02;;;;;;;;;;;;;;;14.83;100.00;101155.50;5092821;28;19916;-77
2023/08/05 11:26:28;;;;;;;;;;;;;;;14.86;100.00;101156.00;5104670;28;20358;-78
2023/08/05 11:28:53;;;;;;;;;;;;;;;14.91;100.00;101156.38;5110621;28;20379;-77
2023/08/05 11:31:22;;;;;;;;;;;;;;;14.96;100.00;101164.78;5114108;28;19999;-76
2023/08/05 11:33:50;;;;;;;;;;;;;;;14.94;100.00;101155.22;5114674;28;19972;-79
2023/08/05 11:36:15;;;;;;;;;;;;;;;14.87;100.00;101162.19;5114290;28;19966;-79
2023/08/05 11:38:42;;;;;;;;;;;;;;;14.79;100.00;101147.78;5114330;28;19951;-78
2023/08/05 11:41:07;;;;;;;;;;;;;;;14.67;100.00;101143.69;5114091;28;19928;-81
2023/08/05 11:43:34;;;;;;;;;;;;;;;14.51;100.00;101116.78;5114442;28;19969;-78
2023/08/05 11:46:01;;;;;;;;;;;;;;;14.28;100.00;101131.50;5114831;28;19924;-78
2023/08/05 11:48:27;;;;;;;;;;;;;;;14.10;100.00;101139.56;5113095;28;20291;-77
2023/08/05 11:50:59;;;;;;;;;;;;;;;13.93;100.00;101143.97;5114292;28;19924;-77
2023/08/05 11:53:25;;;;;;;;;;;;;;;13.82;100.00;101138.81;5113911;28;19920;-79
2023/08/05 11:55:51;;;;;;;;;;;;;;;13.74;100.00;101128.91;5114026;28;19919;-77
2023/08/05 11:58:16;;;;;;;;;;;;;;;13.72;100.00;101128.22;5113917;28;19926;-78
2023/08/05 12:00:43;;;;;;;;;;;;;;;13.74;100.00;101123.56;5113669;28;20379;-77
2023/08/05 12:03:08;;;;;;;;;;;;;;;13.78;100.00;101117.91;5113801;28;20402;-78
2023/08/05 12:05:33;;;;;;;;;;;;;;;13.85;100.00;101124.31;5113595;28;20399;-78
2023/08/05 12:07:59;;;;;;;;;;;;;;;13.88;100.00;101126.69;5113573;28;19927;-76
2023/08/05 12:10:26;;;;;;;;;;;;;;;13.96;100.00;101117.88;5113502;28;20028;-78
2023/08/05 12:12:51;;;;;;;;;;;;;;;14.06;100.00;101115.97;5113355;28;19924;-77
2023/08/05 12:15:24;;;;;;;;;;;;;;;14.17;100.00;101121.06;5113343;28;19931;-78
2023/08/05 12:17:53;;;;;;;;;;;;;;;14.32;100.00;101112.50;5114161;28;19924;-77
2023/08/05 12:20:22;;;;;;;;;;;;;;;14.43;100.00;101105.00;5113530;28;20053;-77